createdAt,value
2022-09-10T00:01:40.119Z,1.50
2022-09-10T00:04:11.751Z,1.95
2022-09-10T00:06:40.776Z,1.50
2022-09-10T00:09:10.163Z,1.10
2022-09-10T00:11:41.160Z,2.83
2022-09-10T00:14:15.149Z,3.30
2022-09-10T00:16:43.792Z,2.60
2022-09-10T00:19:13.097Z,2.55
2022-09-10T00:21:41.872Z,1.90
2022-09-10T00:24:10.370Z,2.75
2022-09-10T00:26:39.887Z,3.10
2022-09-10T00:29:11.820Z,1.13
2022-09-10T00:31:40.789Z,2.05
2022-09-10T00:34:09.516Z,2.80
2022-09-10T00:36:40.723Z,3.08
2022-09-10T00:39:11.561Z,2.40
2022-09-10T00:41:41.472Z,1.90
2022-09-10T00:44:43.680Z,3.33
2022-09-10T00:47:19.025Z,1.85
2022-09-10T00:49:52.312Z,5.43
2022-09-10T00:52:21.246Z,3.78
2022-09-10T00:54:50.010Z,1.52
2022-09-10T00:57:22.022Z,1.98
2022-09-10T00:59:54.182Z,2.63
2022-09-10T01:02:24.109Z,2.70
2022-09-10T01:04:54.149Z,5.05
2022-09-10T01:07:24.098Z,4.65
2022-09-10T01:09:52.916Z,2.88
2022-09-10T01:12:42.460Z,6.95
2022-09-10T01:15:21.986Z,3.53
2022-09-10T01:18:04.212Z,1.38
2022-09-10T01:20:53.078Z,5.28
2022-09-10T01:23:57.467Z,2.38
2022-09-10T01:26:36.449Z,1.35
2022-09-10T01:29:12.929Z,1.90
2022-09-10T01:31:51.557Z,2.67
2022-09-10T01:34:25.807Z,2.15
2022-09-10T01:36:59.324Z,2.20
2022-09-10T01:39:28.887Z,2.80
2022-09-10T01:41:58.964Z,1.88
2022-09-10T01:44:44.578Z,2.65
2022-09-10T01:47:32.148Z,1.33
2022-09-10T01:50:21.946Z,2.08
2022-09-10T01:53:03.080Z,2.03
2022-09-10T01:55:41.901Z,0.98
2022-09-10T01:58:21.252Z,3.25
2022-09-10T02:01:08.749Z,1.27
2022-09-10T02:03:39.645Z,4.18
2022-09-10T02:06:14.310Z,1.45
2022-09-10T02:08:46.569Z,2.50
2022-09-10T02:11:15.604Z,1.77
2022-09-10T02:13:49.579Z,1.38
2022-09-10T02:16:41.797Z,2.38
2022-09-10T02:19:11.221Z,1.88
2022-09-10T02:21:39.850Z,1.08
2022-09-10T02:24:10.847Z,1.58
2022-09-10T02:26:42.326Z,2.22
2022-09-10T02:29:15.330Z,2.78
2022-09-10T02:31:47.347Z,2.17
2022-09-10T02:34:16.816Z,1.63
2022-09-10T02:36:48.178Z,1.63
2022-09-10T02:39:16.867Z,3.60
2022-09-10T02:41:48.104Z,2.65
2022-09-10T02:44:16.786Z,1.50
2022-09-10T02:46:46.649Z,2.70
2022-09-10T02:49:16.133Z,2.05
2022-09-10T02:51:44.854Z,5.32
2022-09-10T02:54:13.493Z,1.17
2022-09-10T02:56:42.009Z,1.15
2022-09-10T02:59:10.637Z,1.13
2022-09-10T03:01:39.248Z,1.67
2022-09-10T03:04:10.525Z,0.90
2022-09-10T03:06:40.068Z,1.60
2022-09-10T03:09:08.575Z,1.02
2022-09-10T03:11:39.721Z,1.35
2022-09-10T03:14:10.272Z,0.70
2022-09-10T03:16:40.113Z,1.65
2022-09-10T03:19:10.658Z,1.08
2022-09-10T03:21:41.471Z,1.67
2022-09-10T03:24:15.157Z,1.08
2022-09-10T03:26:44.449Z,0.90
2022-09-10T03:29:15.477Z,0.68
2022-09-10T03:31:46.703Z,2.15
2022-09-10T03:34:18.257Z,1.38
2022-09-10T03:36:48.245Z,1.92
2022-09-10T03:39:18.502Z,1.10
2022-09-10T03:41:47.868Z,1.05
2022-09-10T03:44:17.245Z,1.33
2022-09-10T03:46:48.627Z,1.35
2022-09-10T03:49:20.520Z,4.15
2022-09-10T03:51:50.651Z,1.33
2022-09-10T03:54:19.240Z,1.13
2022-09-10T03:56:48.017Z,1.13
2022-09-10T03:59:17.204Z,1.33
2022-09-10T04:01:47.978Z,3.15
2022-09-10T04:04:16.753Z,1.95
2022-09-10T04:06:47.127Z,2.05
2022-09-10T04:09:16.827Z,0.73
2022-09-10T04:11:45.354Z,1.75
2022-09-10T04:14:15.593Z,1.00
2022-09-10T04:16:44.694Z,1.52
2022-09-10T04:19:16.153Z,2.85
2022-09-10T04:21:44.861Z,3.00
2022-09-10T04:24:14.859Z,3.47
2022-09-10T04:26:44.104Z,1.42
2022-09-10T04:29:14.442Z,2.03
2022-09-10T04:31:43.207Z,1.45
2022-09-10T04:34:14.677Z,1.52
2022-09-10T04:36:43.421Z,1.30
2022-09-10T04:39:12.126Z,1.65
2022-09-10T04:41:41.994Z,1.40
2022-09-10T04:44:11.175Z,1.70
2022-09-10T04:46:41.229Z,1.10
2022-09-10T04:49:12.234Z,1.40
2022-09-10T04:51:40.737Z,1.67
2022-09-10T04:54:09.282Z,3.15
2022-09-10T04:56:40.801Z,2.88
2022-09-10T04:59:10.791Z,1.50
2022-09-10T05:01:39.466Z,2.10
2022-09-10T05:04:08.126Z,1.65
2022-09-10T05:06:38.787Z,3.28
2022-09-10T05:09:11.462Z,1.42
2022-09-10T05:11:42.763Z,2.63
2022-09-10T05:14:11.907Z,3.00
2022-09-10T05:16:40.961Z,3.90
2022-09-10T05:19:17.532Z,4.30
2022-09-10T05:21:54.874Z,2.20
2022-09-10T05:24:23.746Z,1.70
2022-09-10T05:26:54.920Z,1.13
2022-09-10T05:29:24.021Z,1.38
2022-09-10T05:31:52.581Z,1.20
2022-09-10T05:34:21.506Z,3.80
2022-09-10T05:36:52.331Z,2.38
2022-09-10T05:39:20.901Z,1.38
2022-09-10T05:41:49.366Z,1.15
2022-09-10T05:44:19.225Z,1.33
2022-09-10T05:46:50.842Z,1.98
2022-09-10T05:49:19.545Z,2.13
2022-09-10T05:51:48.175Z,4.05
2022-09-10T05:54:17.701Z,3.15
2022-09-10T05:56:46.982Z,3.17
2022-09-10T05:59:15.508Z,2.28
2022-09-10T06:01:51.564Z,1.50
2022-09-10T06:04:22.218Z,1.38
2022-09-10T06:06:50.851Z,1.90
2022-09-10T06:09:20.173Z,1.40
2022-09-10T06:11:55.425Z,1.52
2022-09-10T06:14:24.764Z,2.00
2022-09-10T06:16:55.749Z,1.23
2022-09-10T06:19:26.029Z,1.27
2022-09-10T06:21:56.450Z,2.80
2022-09-10T06:24:25.869Z,1.58
2022-09-10T06:26:57.912Z,3.05
2022-09-10T06:29:29.389Z,5.15
2022-09-10T06:32:00.911Z,3.72
2022-09-10T06:34:29.435Z,1.83
2022-09-10T06:36:58.339Z,1.30
2022-09-10T06:39:28.996Z,1.88
2022-09-10T06:42:01.348Z,1.33
2022-09-10T06:44:51.493Z,1.80
2022-09-10T06:50:25.369Z,1.88
2022-09-10T06:52:56.999Z,1.38
2022-09-10T06:55:25.616Z,1.05
2022-09-10T06:57:54.225Z,1.55
2022-09-10T07:00:23.647Z,1.15
2022-09-10T07:02:56.216Z,1.08
2022-09-10T07:05:27.733Z,1.20
2022-09-10T07:07:56.246Z,1.05
2022-09-10T07:10:24.830Z,0.93
2022-09-10T07:12:53.753Z,1.70
2022-09-10T07:15:23.473Z,1.60
2022-09-10T07:17:52.588Z,0.98
2022-09-10T07:20:25.558Z,1.33
2022-09-10T07:22:55.135Z,0.90
2022-09-10T07:25:25.314Z,1.13
2022-09-10T07:28:06.494Z,1.45
2022-09-10T07:30:37.796Z,0.70
2022-09-10T07:33:06.628Z,1.10
2022-09-10T07:35:37.242Z,0.40
2022-09-10T07:38:07.553Z,1.95
2022-09-10T07:40:40.096Z,4.60
2022-09-10T07:43:08.617Z,0.85
2022-09-10T07:45:37.302Z,0.70
2022-09-10T07:48:07.113Z,0.68
2022-09-10T07:50:40.757Z,0.82
2022-09-10T07:53:09.385Z,1.05
2022-09-10T07:55:38.110Z,0.65
2022-09-10T07:58:07.278Z,1.23
2022-09-10T08:00:36.720Z,1.00
2022-09-10T08:03:10.229Z,0.80
2022-09-10T08:05:41.674Z,0.40
2022-09-10T08:08:11.225Z,0.43
2022-09-10T08:10:40.250Z,0.75
2022-09-10T08:13:10.049Z,1.92
2022-09-10T08:15:44.054Z,0.65
2022-09-10T08:18:14.669Z,1.33
2022-09-10T08:20:44.709Z,0.60
2022-09-10T08:23:13.253Z,0.88
2022-09-10T08:25:51.508Z,0.80
2022-09-10T08:28:25.327Z,1.42
2022-09-10T08:31:00.489Z,0.70
2022-09-10T08:33:29.485Z,5.97
2022-09-10T08:36:00.837Z,0.85
2022-09-10T08:38:32.737Z,1.10
2022-09-10T08:41:03.557Z,3.28
2022-09-10T08:43:37.405Z,1.08
2022-09-10T08:46:15.105Z,1.42
2022-09-10T08:48:46.973Z,1.65
2022-09-10T08:51:27.591Z,2.88
2022-09-10T08:54:01.310Z,11.57
2022-09-10T08:56:30.197Z,1.73
2022-09-10T08:59:03.900Z,1.70
2022-09-10T09:01:40.392Z,1.67
2022-09-10T09:04:16.497Z,2.38
2022-09-10T09:06:52.366Z,1.60
2022-09-10T09:09:22.706Z,2.17
2022-09-10T09:12:00.721Z,1.90
2022-09-10T09:14:45.158Z,2.90
2022-09-10T09:17:32.170Z,2.22
2022-09-10T09:20:10.521Z,1.30
2022-09-10T09:22:51.967Z,1.50
2022-09-10T09:25:28.601Z,2.78
2022-09-10T09:27:58.468Z,2.28
2022-09-10T09:30:37.134Z,1.50
2022-09-10T09:33:16.306Z,3.15
2022-09-10T09:35:52.495Z,1.63
2022-09-10T09:38:26.134Z,1.52
2022-09-10T09:41:00.299Z,1.23
2022-09-10T09:43:42.522Z,2.95
2022-09-10T09:46:16.353Z,1.58
2022-09-10T09:48:48.912Z,2.83
2022-09-10T09:51:20.988Z,2.08
2022-09-10T09:54:12.119Z,2.63
2022-09-10T09:56:45.572Z,2.15
2022-09-10T09:59:26.685Z,1.50
2022-09-10T10:01:56.422Z,2.88
2022-09-10T10:04:30.801Z,1.63
2022-09-10T10:07:01.134Z,1.63
2022-09-10T10:09:33.017Z,4.78
2022-09-10T10:12:05.720Z,2.03
2022-09-10T10:14:38.196Z,2.42
2022-09-10T10:17:29.657Z,2.30
2022-09-10T10:20:01.146Z,1.95
2022-09-10T10:22:31.947Z,1.98
2022-09-10T10:25:03.455Z,2.00
2022-09-10T10:27:35.247Z,2.92
2022-09-10T10:30:22.008Z,1.38
2022-09-10T10:32:55.038Z,2.40
2022-09-10T10:35:32.674Z,2.05
2022-09-10T10:38:33.819Z,1.85
2022-09-10T10:41:35.901Z,2.58
2022-09-10T10:44:21.563Z,1.73
2022-09-10T10:47:00.773Z,3.75
2022-09-10T10:49:43.942Z,2.53
2022-09-10T10:52:20.304Z,3.72
2022-09-10T10:55:06.981Z,1.88
2022-09-10T10:57:55.358Z,2.13
2022-09-10T11:00:24.907Z,2.50
2022-09-10T11:02:58.475Z,2.53
2022-09-10T11:05:31.930Z,3.45
2022-09-10T11:08:01.505Z,2.55
2022-09-10T11:10:35.374Z,4.00
2022-09-10T11:13:12.974Z,1.50
2022-09-10T11:15:48.553Z,2.83
2022-09-10T11:18:22.183Z,1.80
2022-09-10T11:21:00.700Z,2.15
2022-09-10T11:23:34.152Z,2.10
2022-09-10T11:26:05.808Z,3.15
2022-09-10T11:28:40.290Z,3.90
2022-09-10T11:31:16.174Z,3.72
2022-09-10T11:33:53.300Z,1.75
2022-09-10T11:36:28.359Z,2.63
2022-09-10T11:39:06.903Z,4.15
2022-09-10T11:41:42.074Z,2.67
2022-09-10T11:44:33.325Z,1.85
2022-09-10T11:47:09.988Z,2.00
2022-09-10T11:49:48.238Z,2.08
2022-09-10T11:52:18.454Z,2.38
2022-09-10T11:54:47.694Z,3.95
2022-09-10T11:57:32.092Z,4.88
2022-09-10T12:00:18.029Z,2.88
2022-09-10T12:03:31.463Z,2.47
2022-09-10T12:06:07.909Z,3.50
2022-09-10T12:08:52.153Z,5.05
2022-09-10T12:11:28.245Z,3.40
2022-09-10T12:13:57.438Z,2.15
2022-09-10T12:16:35.760Z,1.80
2022-09-10T12:19:08.654Z,2.85
2022-09-10T12:21:42.351Z,2.47
2022-09-10T12:24:26.681Z,4.72
2022-09-10T12:26:56.188Z,2.70
2022-09-10T12:29:31.012Z,3.72
2022-09-10T12:32:38.380Z,2.15
2022-09-10T12:35:46.484Z,4.05
2022-09-10T12:38:58.035Z,2.58
2022-09-10T12:41:59.767Z,1.75
2022-09-10T12:44:43.985Z,3.22
2022-09-10T12:47:44.880Z,2.22
2022-09-10T12:50:32.242Z,3.40
2022-09-10T12:53:37.438Z,2.40
2022-09-10T12:56:26.197Z,2.88
2022-09-10T12:59:10.940Z,2.22
2022-09-10T13:01:44.106Z,2.72
2022-09-10T13:04:29.513Z,2.35
2022-09-10T13:07:01.485Z,2.80
2022-09-10T13:09:33.294Z,2.40
2022-09-10T13:12:06.027Z,3.35
2022-09-10T13:14:39.563Z,2.17
2022-09-10T13:17:29.184Z,2.78
2022-09-10T13:20:14.908Z,6.15
2022-09-10T13:23:05.950Z,3.95
2022-09-10T13:25:41.386Z,3.08
2022-09-10T13:28:47.382Z,2.97
2022-09-10T13:31:25.931Z,4.10
2022-09-10T13:34:29.498Z,4.50
2022-09-10T13:37:20.685Z,9.40
2022-09-10T13:40:07.969Z,6.10
2022-09-10T13:43:07.273Z,6.00
2022-09-10T13:45:40.285Z,6.18
2022-09-10T13:48:17.342Z,4.57
2022-09-10T13:50:54.775Z,8.93
2022-09-10T13:53:26.287Z,10.57
2022-09-10T13:55:58.984Z,6.10
2022-09-10T13:58:31.038Z,8.98
2022-09-10T14:01:02.803Z,5.50
2022-09-10T14:03:34.438Z,6.18
2022-09-10T14:06:05.113Z,8.60
2022-09-10T14:08:38.397Z,7.25
2022-09-10T14:11:16.869Z,5.80
2022-09-10T14:13:57.772Z,10.43
2022-09-10T14:16:31.797Z,6.90
2022-09-10T14:19:05.201Z,11.07
2022-09-10T14:21:34.062Z,5.40
2022-09-10T14:24:03.265Z,9.95
2022-09-10T14:26:33.693Z,8.43
2022-09-10T14:29:03.914Z,9.15
2022-09-10T14:31:37.249Z,7.78
2022-09-10T14:34:26.969Z,7.10
2022-09-10T14:36:55.524Z,5.72
2022-09-10T14:39:25.009Z,8.13
2022-09-10T14:42:10.308Z,7.53
2022-09-10T14:44:42.921Z,8.75
2022-09-10T14:47:24.138Z,5.20
2022-09-10T14:49:54.217Z,6.97
2022-09-10T14:52:23.975Z,6.28
2022-09-10T14:54:52.450Z,7.10
2022-09-10T14:57:20.977Z,5.72
2022-09-10T14:59:50.256Z,4.75
2022-09-10T15:02:23.820Z,8.00
2022-09-10T15:04:53.925Z,4.95
2022-09-10T15:07:23.613Z,6.55
2022-09-10T15:09:53.708Z,7.03
2022-09-10T15:12:25.672Z,6.50
2022-09-10T15:14:54.414Z,5.70
2022-09-10T15:17:23.049Z,5.93
2022-09-10T15:19:55.836Z,5.43
2022-09-10T15:22:26.594Z,5.55
2022-09-10T15:25:11.668Z,6.78
2022-09-10T15:27:41.765Z,5.47
2022-09-10T15:30:10.907Z,4.35
2022-09-10T15:32:39.367Z,5.70
2022-09-10T15:35:09.994Z,5.00
2022-09-10T15:37:38.706Z,6.70
2022-09-10T15:40:09.250Z,6.28
2022-09-10T15:42:37.750Z,5.47
2022-09-10T15:45:07.056Z,4.78
2022-09-10T15:47:36.199Z,3.17
2022-09-10T15:50:05.292Z,3.85
2022-09-10T15:52:35.152Z,5.07
2022-09-10T15:55:03.619Z,3.88
2022-09-10T15:57:32.090Z,3.80
2022-09-10T16:00:01.620Z,4.25
2022-09-10T16:02:32.877Z,3.97
2022-09-10T16:05:01.988Z,4.95
2022-09-10T16:07:30.416Z,2.58
2022-09-10T16:10:00.234Z,3.13
2022-09-10T16:12:28.712Z,3.70
2022-09-10T16:14:57.202Z,3.83
2022-09-10T16:17:25.926Z,6.18
2022-09-10T16:19:54.627Z,4.03
2022-09-10T16:22:23.865Z,5.50
2022-09-10T16:24:52.508Z,4.10
2022-09-10T16:27:22.631Z,5.05
2022-09-10T16:29:51.297Z,3.92
2022-09-10T16:32:19.780Z,6.25
2022-09-10T16:34:48.208Z,4.40
2022-09-10T16:37:17.305Z,2.75
2022-09-10T16:39:45.896Z,3.22
2022-09-10T16:42:14.540Z,5.50
2022-09-10T16:44:44.437Z,3.10
2022-09-10T16:47:14.143Z,4.15
2022-09-10T16:49:42.593Z,3.53
2022-09-10T16:52:11.910Z,2.50
2022-09-10T16:54:40.389Z,4.40
2022-09-10T16:57:08.848Z,2.65
2022-09-10T16:59:37.433Z,3.58
2022-09-10T17:02:07.584Z,4.53
2022-09-10T17:04:36.377Z,3.92
2022-09-10T17:07:04.969Z,4.00
2022-09-10T17:09:33.548Z,4.53
2022-09-10T17:12:02.100Z,4.75
2022-09-10T17:14:30.585Z,3.35
2022-09-10T17:16:59.918Z,3.00
2022-09-10T17:19:29.735Z,5.10
2022-09-10T17:21:58.264Z,3.00
2022-09-10T17:24:27.846Z,3.35
2022-09-10T17:26:56.415Z,5.15
2022-09-10T17:29:26.545Z,5.32
2022-09-10T17:31:57.305Z,4.70
2022-09-10T17:34:27.101Z,4.60
2022-09-10T17:36:57.189Z,4.03
2022-09-10T17:39:28.301Z,5.35
2022-09-10T17:41:56.982Z,4.70
2022-09-10T17:44:26.129Z,4.40
2022-09-10T17:46:55.097Z,3.90
2022-09-10T17:49:24.387Z,4.25
2022-09-10T17:51:53.192Z,2.95
2022-09-10T17:54:23.385Z,3.63
2022-09-10T17:56:51.865Z,4.82
2022-09-10T17:59:21.874Z,4.28
2022-09-10T18:01:50.437Z,2.22
2022-09-10T18:04:21.518Z,4.13
2022-09-10T18:06:52.381Z,2.92
2022-09-10T18:09:23.503Z,2.85
2022-09-10T18:11:52.409Z,6.07
2022-09-10T18:14:21.884Z,4.32
2022-09-10T18:16:51.378Z,3.45
2022-09-10T18:19:20.016Z,4.70
2022-09-10T18:21:50.935Z,2.90
2022-09-10T18:24:22.365Z,3.58
2022-09-10T18:26:54.265Z,4.28
2022-09-10T18:29:24.777Z,3.38
2022-09-10T18:31:55.633Z,3.38
2022-09-10T18:34:26.871Z,6.53
2022-09-10T18:36:57.614Z,3.05
2022-09-10T18:39:28.009Z,3.38
2022-09-10T18:41:58.892Z,3.25
2022-09-10T18:44:29.628Z,8.52
2022-09-10T18:46:58.518Z,2.50
2022-09-10T18:49:27.592Z,4.07
2022-09-10T18:51:57.287Z,4.15
2022-09-10T18:54:28.608Z,4.30
2022-09-10T18:56:58.784Z,5.50
2022-09-10T18:59:27.707Z,3.65
2022-09-10T19:01:56.785Z,3.20
2022-09-10T19:04:27.209Z,4.95
2022-09-10T19:06:56.770Z,3.25
2022-09-10T19:09:26.965Z,4.10
2022-09-10T19:11:56.736Z,5.20
2022-09-10T19:14:29.199Z,8.63
2022-09-10T19:16:59.335Z,5.95
2022-09-10T19:19:29.152Z,4.97
2022-09-10T19:22:01.049Z,3.97
2022-09-10T19:24:53.529Z,4.95
2022-09-10T19:27:18.982Z,6.47
2022-09-10T19:29:49.786Z,3.80
2022-09-10T19:32:19.429Z,5.15
2022-09-10T19:34:50.534Z,4.63
2022-09-10T19:37:19.470Z,4.35
2022-09-10T19:39:48.040Z,3.90
2022-09-10T19:42:17.177Z,4.32
2022-09-10T19:44:45.671Z,5.22
2022-09-10T19:47:15.733Z,4.65
2022-09-10T19:49:44.181Z,5.45
2022-09-10T19:52:15.563Z,6.53
2022-09-10T19:54:44.057Z,6.65
2022-09-10T19:57:12.537Z,6.65
2022-09-10T19:59:40.979Z,6.97
2022-09-10T20:02:10.447Z,5.05
2022-09-10T20:04:40.403Z,7.07
2022-09-10T20:07:08.904Z,8.98
2022-09-10T20:09:40.067Z,9.48
2022-09-10T20:12:09.210Z,6.60
2022-09-10T20:14:38.068Z,7.18
2022-09-10T20:17:06.516Z,8.38
2022-09-10T20:19:35.034Z,10.75
2022-09-10T20:22:04.924Z,7.13
2022-09-10T20:24:33.498Z,10.90
2022-09-10T20:27:01.968Z,6.53
2022-09-10T20:29:32.880Z,7.43
2022-09-10T20:32:01.419Z,6.85
2022-09-10T20:34:31.267Z,10.32
2022-09-10T20:36:59.855Z,7.75
2022-09-10T20:39:31.657Z,8.25
2022-09-10T20:42:00.549Z,8.38
2022-09-10T20:44:30.011Z,7.65
2022-09-10T20:46:58.461Z,9.05
2022-09-10T20:49:27.371Z,8.07
2022-09-10T20:51:56.145Z,6.13
2022-09-10T20:54:24.576Z,8.23
2022-09-10T20:56:54.415Z,7.38
2022-09-10T20:59:27.527Z,7.22
2022-09-10T21:01:56.577Z,7.47
2022-09-10T21:04:26.353Z,6.85
2022-09-10T21:06:55.151Z,8.75
2022-09-10T21:09:23.599Z,7.75
2022-09-10T21:11:52.042Z,7.65
2022-09-10T21:14:21.890Z,6.95
2022-09-10T21:16:50.373Z,9.80
2022-09-10T21:19:18.951Z,8.35
2022-09-10T21:21:48.740Z,7.22
2022-09-10T21:24:18.964Z,8.68
2022-09-10T21:26:47.493Z,7.25
2022-09-10T21:29:18.182Z,9.35
2022-09-10T21:31:49.636Z,7.60
2022-09-10T21:34:19.205Z,7.55
2022-09-10T21:36:47.712Z,6.43
2022-09-10T21:39:17.356Z,7.28
2022-09-10T21:41:47.264Z,9.00
2022-09-10T21:44:17.424Z,7.07
2022-09-10T21:46:48.556Z,7.65
2022-09-10T21:49:17.712Z,8.02
2022-09-10T21:51:46.680Z,7.20
2022-09-10T21:54:18.499Z,8.20
2022-09-10T21:56:46.992Z,8.20
2022-09-10T21:59:16.108Z,8.32
2022-09-10T22:01:47.357Z,7.70
2022-09-10T22:04:22.153Z,8.68
2022-09-10T22:06:51.826Z,8.30
2022-09-10T22:09:21.255Z,7.75
2022-09-10T22:11:51.947Z,6.35
2022-09-10T22:14:22.449Z,6.43
2022-09-10T22:16:52.690Z,7.05
2022-09-10T22:19:23.370Z,6.90
2022-09-10T22:21:54.014Z,9.30
2022-09-10T22:24:22.629Z,10.73
2022-09-10T22:26:51.456Z,7.75
2022-09-10T22:29:21.246Z,7.63
2022-09-10T22:31:50.329Z,6.60
2022-09-10T22:34:20.723Z,9.35
2022-09-10T22:36:49.688Z,5.18
2022-09-10T22:39:20.054Z,8.02
2022-09-10T22:41:49.971Z,7.20
2022-09-10T22:44:19.272Z,7.63
2022-09-10T22:46:47.941Z,7.75
2022-09-10T22:49:17.081Z,10.82
2022-09-10T22:51:47.123Z,7.72
2022-09-10T22:54:17.336Z,7.68
2022-09-10T22:56:45.884Z,9.00
2022-09-10T22:59:15.865Z,7.45
2022-09-10T23:01:47.279Z,8.93
2022-09-10T23:04:16.494Z,9.63
2022-09-10T23:06:46.372Z,6.65
2022-09-10T23:09:16.777Z,6.25
2022-09-10T23:11:45.923Z,7.13
2022-09-10T23:14:17.650Z,8.85
2022-09-10T23:16:48.306Z,6.75
2022-09-10T23:19:19.662Z,8.68
2022-09-10T23:21:51.286Z,6.78
2022-09-10T23:24:21.923Z,7.57
2022-09-10T23:26:50.644Z,6.95
2022-09-10T23:29:20.529Z,8.40
2022-09-10T23:31:49.825Z,7.43
2022-09-10T23:34:20.036Z,8.90
2022-09-10T23:36:51.168Z,7.70
2022-09-10T23:39:21.148Z,7.38
2022-09-10T23:41:51.160Z,8.15
2022-09-10T23:44:20.253Z,8.60
2022-09-10T23:46:49.269Z,8.80
2022-09-10T23:49:17.948Z,8.18
2022-09-10T23:51:46.494Z,9.70
2022-09-10T23:54:16.340Z,10.25
2022-09-10T23:56:44.817Z,9.98
2022-09-10T23:59:13.461Z,9.45
